Time;durP1;ratioP1;P1;durP2;ratioP2;P2;SDS_P1;SDS_P2;PMS_P1;PMS_P2;Temp;Humidity;BMP_temperature;BMP_pressure;BME280_temperature;BME280_humidity;BME280_pressure;Samples;Min_cycle;Max_cycle;Signal;HPM_P1;HPM_P2
2022/04/23 00:02:10;;;;;;;1.13;0.20;;;27.10;96.50;;;;;;5119023;27;20031;-71
2022/04/23 00:04:38;;;;;;;0.55;0.10;;;27.20;97.00;;;;;;5112379;28;20034;-72
2022/04/23 00:07:06;;;;;;;1.45;0.20;;;26.40;96.50;;;;;;5120193;27;20353;-72
2022/04/23 00:09:34;;;;;;;1.95;0.30;;;26.10;98.00;;;;;;5111762;27;20111;-72
2022/04/23 00:12:02;;;;;;;3.65;0.30;;;26.20;97.50;;;;;;5110204;27;20035;-72
2022/04/23 00:14:29;;;;;;;2.28;0.20;;;25.60;97.40;;;;;;5106455;27;20028;-72
2022/04/23 00:17:00;;;;;;;1.00;0.15;;;25.50;98.00;;;;;;5110801;28;20023;-71
2022/04/23 00:19:27;;;;;;;1.17;0.10;;;26.20;97.90;;;;;;5110920;28;20106;-72
2022/04/23 00:21:55;;;;;;;0.60;0.10;;;26.60;98.10;;;;;;5111968;27;20023;-72
2022/04/23 00:24:22;;;;;;;1.65;0.20;;;27.00;97.80;;;;;;5132740;27;20477;-72
2022/04/23 00:26:49;;;;;;;1.25;0.20;;;27.50;96.50;;;;;;5121852;27;20030;-72
2022/04/23 00:29:17;;;;;;;0.65;0.15;;;28.00;96.10;;;;;;5110794;28;20106;-72
2022/04/23 00:31:44;;;;;;;2.72;0.43;;;28.50;96.30;;;;;;5110470;28;20070;-72
2022/04/23 00:34:12;;;;;;;1.27;0.30;;;29.10;95.70;;;;;;5111896;28;20054;-72
2022/04/23 00:36:39;;;;;;;0.22;0.10;;;29.00;95.50;;;;;;5110128;28;20119;-73
2022/04/23 00:39:06;;;;;;;0.85;0.52;;;29.50;94.60;;;;;;5110950;28;20034;-73
2022/04/23 00:41:46;;;;;;;1.27;0.20;;;29.30;94.10;;;;;;5109083;28;20058;-73
2022/04/23 00:44:17;;;;;;;0.88;0.10;;;28.00;94.10;;;;;;5109624;28;20042;-73
2022/04/23 00:46:45;;;;;;;0.52;0.10;;;26.80;95.90;;;;;;5116756;27;20681;-72
2022/04/23 00:49:13;;;;;;;0.55;0.20;;;25.90;96.20;;;;;;5118824;27;20485;-73
2022/04/23 00:51:42;;;;;;;1.98;0.20;;;26.20;96.20;;;;;;5109636;27;20043;-73
2022/04/23 00:54:10;;;;;;;2.85;0.10;;;27.30;95.40;;;;;;5108968;28;20067;-72
2022/04/23 00:56:39;;;;;;;1.95;0.20;;;28.20;95.10;;;;;;5108571;28;20020;-73
2022/04/23 00:59:11;;;;;;;1.38;0.30;;;29.10;94.50;;;;;;5111602;28;20024;-73
2022/04/23 01:01:40;;;;;;;2.50;0.20;;;29.90;93.50;;;;;;5115593;27;20029;-71
2022/04/23 01:04:09;;;;;;;3.00;0.40;;;29.90;92.20;;;;;;5116114;27;20023;-73
2022/04/23 01:06:37;;;;;;;0.43;0.10;;;29.70;91.90;;;;;;5109767;27;20062;-72
2022/04/23 01:09:06;;;;;;;0.30;0.10;;;29.40;91.90;;;;;;5111702;28;20030;-73
2022/04/23 01:11:38;;;;;;;0.68;0.20;;;28.20;91.80;;;;;;5114204;27;20043;-73
2022/04/23 01:14:05;;;;;;;1.85;0.20;;;27.00;93.10;;;;;;5122314;27;20017;-73
2022/04/23 01:16:33;;;;;;;0.30;0.10;;;25.80;94.10;;;;;;5095369;28;20024;-72
2022/04/23 01:19:00;;;;;;;0.35;0.10;;;25.00;94.40;;;;;;5110310;28;20146;-72
2022/04/23 01:21:28;;;;;;;0.35;0.20;;;24.40;95.70;;;;;;5095342;28;20094;-73
2022/04/23 01:23:57;;;;;;;0.50;0.10;;;23.80;96.90;;;;;;5111333;28;20027;-73
2022/04/23 01:26:32;;;;;;;0.75;0.10;;;23.60;98.20;;;;;;5109480;28;20065;-73
2022/04/23 01:29:00;;;;;;;1.47;0.20;;;24.20;98.30;;;;;;5110119;28;20043;-72
2022/04/23 01:31:28;;;;;;;0.80;0.20;;;25.70;96.10;;;;;;5109428;27;20200;-73
2022/04/23 01:33:55;;;;;;;1.60;0.47;;;27.30;94.10;;;;;;5111330;28;20435;-73
2022/04/23 01:36:23;;;;;;;1.13;0.10;;;28.30;93.00;;;;;;5109393;28;20043;-73
2022/04/23 01:38:51;;;;;;;0.68;0.30;;;28.90;93.00;;;;;;5109994;28;20028;-73
2022/04/23 01:41:18;;;;;;;1.35;0.20;;;29.60;91.90;;;;;;5108787;28;20035;-72
2022/04/23 01:43:45;;;;;;;1.23;0.10;;;28.80;92.30;;;;;;5105818;28;20063;-73
2022/04/23 01:46:13;;;;;;;0.75;0.10;;;27.50;92.50;;;;;;5108743;28;20063;-72
2022/04/23 01:48:40;;;;;;;0.57;0.10;;;26.00;92.70;;;;;;5107949;28;20043;-73
2022/04/23 01:51:07;;;;;;;0.65;0.20;;;24.90;94.30;;;;;;5109472;28;20078;-73
2022/04/23 01:53:35;;;;;;;0.47;0.20;;;24.30;94.60;;;;;;5110011;28;20027;-73
2022/04/23 01:56:02;;;;;;;0.82;0.15;;;23.80;95.60;;;;;;5109525;28;20020;-72
2022/04/23 01:58:29;;;;;;;2.10;0.20;;;23.50;96.00;;;;;;5109797;28;20064;-73
2022/04/23 02:00:59;;;;;;;0.40;0.40;;;23.20;96.70;;;;;;5109066;28;20386;-73
2022/04/23 02:03:28;;;;;;;1.15;0.10;;;23.00;96.40;;;;;;5110299;28;20075;-73
2022/04/23 02:05:56;;;;;;;1.05;0.20;;;22.90;96.40;;;;;;5108106;28;20035;-74
2022/04/23 02:08:23;;;;;;;2.80;0.25;;;22.80;97.20;;;;;;5094216;28;20024;-73
2022/04/23 02:10:52;;;;;;;0.28;0.20;;;22.80;97.10;;;;;;5094129;28;20027;-73
2022/04/23 02:13:19;;;;;;;0.88;0.10;;;22.70;96.30;;;;;;5134855;27;20031;-74
2022/04/23 02:15:47;;;;;;;3.92;0.25;;;23.60;97.10;;;;;;5116142;27;20023;-73
2022/04/23 02:18:16;;;;;;;1.50;0.43;;;24.90;95.40;;;;;;5117829;27;20031;-73
2022/04/23 02:20:44;;;;;;;1.85;0.13;;;25.90;93.90;;;;;;5099901;28;20059;-73
2022/04/23 02:23:11;;;;;;;0.80;0.20;;;26.50;93.30;;;;;;5114436;27;20038;-73
2022/04/23 02:25:39;;;;;;;1.35;0.20;;;27.20;93.60;;;;;;5135125;27;20465;-73
2022/04/23 02:28:06;;;;;;;0.88;0.10;;;27.60;94.30;;;;;;5117734;27;20145;-73
2022/04/23 02:30:34;;;;;;;0.98;0.28;;;27.90;92.60;;;;;;5112884;28;20020;-73
2022/04/23 02:33:02;;;;;;;0.57;0.20;;;28.40;92.50;;;;;;5112807;28;20043;-73
2022/04/23 02:35:30;;;;;;;0.30;0.10;;;28.80;91.20;;;;;;5114263;28;20024;-72
2022/04/23 02:38:01;;;;;;;0.57;0.20;;;29.00;86.80;;;;;;5111242;28;20023;-72
2022/04/23 02:40:29;;;;;;;0.32;0.10;;;28.90;87.10;;;;;;5114431;28;20358;-72
2022/04/23 02:42:57;;;;;;;0.25;0.10;;;28.90;90.70;;;;;;5112507;28;20035;-73
2022/04/23 02:45:25;;;;;;;1.45;0.17;;;28.40;90.10;;;;;;5093941;28;20478;-73
2022/04/23 02:47:54;;;;;;;0.70;0.10;;;28.10;89.50;;;;;;5107880;28;20056;-73
2022/04/23 02:50:28;;;;;;;0.88;0.28;;;28.00;89.80;;;;;;5112696;28;20031;-73
2022/04/23 02:52:57;;;;;;;1.20;0.20;;;28.30;90.50;;;;;;5120296;27;20036;-72
2022/04/23 02:55:26;;;;;;;2.28;0.20;;;28.80;91.20;;;;;;5113998;28;20027;-72
2022/04/23 02:57:56;;;;;;;0.77;0.13;;;29.00;91.30;;;;;;5112551;28;20100;-73
2022/04/23 03:00:24;;;;;;;4.85;1.58;;;28.40;91.60;;;;;;5112501;28;20020;-72
2022/04/23 03:02:52;;;;;;;0.85;0.10;;;27.50;91.50;;;;;;5112342;27;20099;-73
2022/04/23 03:05:19;;;;;;;2.28;0.20;;;26.60;92.40;;;;;;5112500;27;20385;-72
2022/04/23 03:07:48;;;;;;;0.20;0.10;;;25.70;93.20;;;;;;5127158;27;20046;-73
2022/04/23 03:10:17;;;;;;;0.30;0.28;;;25.10;94.20;;;;;;5121790;27;20027;-72
2022/04/23 03:12:44;;;;;;;1.48;0.20;;;24.60;94.60;;;;;;5111566;28;20036;-72
2022/04/23 03:15:18;;;;;;;1.00;0.17;;;24.30;95.50;;;;;;5100309;28;20031;-73
2022/04/23 03:17:47;;;;;;;0.30;0.20;;;24.20;95.60;;;;;;5107807;28;20096;-73
2022/04/23 03:20:15;;;;;;;0.47;0.10;;;24.90;94.20;;;;;;5109809;28;20016;-73
2022/04/23 03:22:43;;;;;;;3.63;0.20;;;25.70;93.40;;;;;;5108786;27;20481;-72
2022/04/23 03:25:12;;;;;;;0.35;0.17;;;25.60;92.70;;;;;;5113475;28;20114;-72
2022/04/23 03:27:39;;;;;;;0.75;0.20;;;25.50;92.80;;;;;;5110512;28;20481;-73
2022/04/23 03:30:07;;;;;;;1.10;0.10;;;26.00;92.70;;;;;;5112938;28;20488;-73
2022/04/23 03:32:35;;;;;;;2.08;0.22;;;26.40;91.90;;;;;;5111843;27;20024;-74
2022/04/23 03:35:05;;;;;;;1.33;0.20;;;26.80;91.20;;;;;;5113585;28;20022;-74
2022/04/23 03:37:33;;;;;;;0.95;0.03;;;26.80;91.30;;;;;;5111378;28;20100;-72
2022/04/23 03:40:04;;;;;;;1.50;0.30;;;26.30;91.70;;;;;;5113084;28;20488;-72
2022/04/23 03:42:33;;;;;;;2.05;0.40;;;25.60;92.40;;;;;;5111602;28;20040;-74
2022/04/23 03:45:00;;;;;;;1.85;0.10;;;25.00;92.10;;;;;;5114014;28;20024;-75
2022/04/23 03:47:27;;;;;;;0.20;0.10;;;24.80;92.70;;;;;;5109557;28;20197;-73
2022/04/23 03:49:54;;;;;;;0.68;0.10;;;24.80;91.60;;;;;;5112032;28;20057;-74
2022/04/23 03:52:22;;;;;;;2.30;0.40;;;25.00;92.20;;;;;;5111074;27;20035;-74
2022/04/23 03:54:49;;;;;;;2.17;0.10;;;25.40;91.70;;;;;;5112814;28;20069;-71
2022/04/23 03:57:16;;;;;;;0.82;0.15;;;25.50;91.40;;;;;;5121608;27;20039;-72
2022/04/23 03:59:44;;;;;;;1.10;0.17;;;25.90;91.70;;;;;;5112843;28;20030;-73
2022/04/23 04:02:11;;;;;;;0.52;0.10;;;26.30;91.20;;;;;;5109822;28;20024;-75
2022/04/23 04:04:38;;;;;;;0.75;0.20;;;26.50;90.60;;;;;;5110799;28;20032;-74
2022/04/23 04:07:06;;;;;;;0.60;0.20;;;26.50;91.00;;;;;;5112390;28;20031;-73
2022/04/23 04:09:33;;;;;;;0.70;0.08;;;25.90;90.80;;;;;;5107424;28;20025;-72
2022/04/23 04:12:03;;;;;;;0.43;0.13;;;25.30;91.60;;;;;;5107168;28;20562;-74
2022/04/23 04:14:32;;;;;;;0.50;0.17;;;24.80;92.10;;;;;;5103733;28;20065;-75
2022/04/23 04:17:00;;;;;;;0.50;0.13;;;24.40;92.50;;;;;;5115375;27;20023;-74
2022/04/23 04:19:32;;;;;;;1.63;0.10;;;24.10;92.80;;;;;;5109012;28;20020;-75
2022/04/23 04:22:03;;;;;;;0.75;0.10;;;23.90;92.60;;;;;;5109184;28;20100;-73
2022/04/23 04:24:31;;;;;;;0.10;0.00;;;23.70;92.40;;;;;;5110029;28;20024;-73
2022/04/23 04:27:03;;;;;;;0.68;0.20;;;23.70;93.10;;;;;;5108111;28;20044;-73
2022/04/23 04:29:31;;;;;;;0.95;0.30;;;24.20;92.50;;;;;;5111853;28;20338;-74
2022/04/23 04:31:58;;;;;;;0.30;0.10;;;24.70;91.70;;;;;;5117247;27;20129;-73
2022/04/23 04:34:30;;;;;;;0.40;0.17;;;25.10;91.80;;;;;;5128340;27;20057;-74
2022/04/23 04:37:09;;;;;;;0.82;0.20;;;25.40;91.70;;;;;;5108333;27;20046;-73
2022/04/23 04:39:43;;;;;;;1.52;0.50;;;25.80;91.10;;;;;;5099622;28;20020;-72
2022/04/23 04:42:11;;;;;;;0.85;0.40;;;25.90;91.30;;;;;;5099725;27;20051;-72
2022/04/23 04:44:39;;;;;;;1.92;0.20;;;25.90;91.10;;;;;;5098405;27;20027;-72
2022/04/23 04:47:09;;;;;;;0.43;0.20;;;25.80;91.10;;;;;;5104894;28;20876;-73
2022/04/23 04:49:39;;;;;;;0.05;0.05;;;25.50;90.80;;;;;;5110263;28;20067;-73
2022/04/23 04:52:07;;;;;;;2.05;0.20;;;25.10;91.00;;;;;;5104531;28;20050;-74
2022/04/23 04:54:35;;;;;;;0.73;0.10;;;24.70;90.90;;;;;;5104945;28;20073;-73
2022/04/23 04:57:03;;;;;;;2.15;0.30;;;24.30;91.20;;;;;;5105187;28;20044;-74
2022/04/23 04:59:34;;;;;;;1.48;0.20;;;24.00;91.30;;;;;;5090575;28;20081;-73
2022/04/23 05:02:02;;;;;;;2.78;0.20;;;23.70;91.70;;;;;;5095812;28;20024;-73
2022/04/23 05:04:30;;;;;;;2.30;0.80;;;23.50;92.30;;;;;;5107701;28;20024;-74
2022/04/23 05:06:58;;;;;;;0.60;0.30;;;23.40;92.80;;;;;;5109690;28;20038;-75
2022/04/23 05:09:25;;;;;;;0.60;0.30;;;23.30;93.10;;;;;;5087129;28;20072;-74
2022/04/23 05:11:52;;;;;;;2.00;0.30;;;23.20;93.60;;;;;;5107205;28;20543;-74
2022/04/23 05:14:20;;;;;;;2.15;0.30;;;23.10;93.70;;;;;;5109482;28;20481;-75
2022/04/23 05:16:47;;;;;;;1.23;0.20;;;23.10;94.00;;;;;;5109666;28;20111;-74
2022/04/23 05:19:14;;;;;;;1.40;0.40;;;23.00;94.20;;;;;;5111618;28;20034;-74
2022/04/23 05:21:42;;;;;;;0.43;0.22;;;22.90;94.60;;;;;;5109455;28;20107;-73
2022/04/23 05:24:10;;;;;;;0.90;0.40;;;22.80;94.70;;;;;;5109117;28;20031;-73
2022/04/23 05:26:37;;;;;;;1.75;0.30;;;22.80;95.10;;;;;;5105947;27;20019;-74
2022/04/23 05:29:04;;;;;;;0.60;0.22;;;22.90;95.20;;;;;;5108975;28;20033;-73
2022/04/23 05:31:32;;;;;;;1.20;0.52;;;23.10;94.90;;;;;;5108300;28;20036;-74
2022/04/23 05:34:00;;;;;;;1.05;0.35;;;23.10;95.00;;;;;;5108712;28;20071;-73
2022/04/23 05:36:27;;;;;;;1.58;0.28;;;22.80;95.40;;;;;;5108297;28;20023;-74
2022/04/23 05:38:55;;;;;;;1.15;0.30;;;22.70;95.60;;;;;;5109994;28;20023;-73
2022/04/23 05:41:23;;;;;;;2.13;0.50;;;22.80;95.90;;;;;;5108796;28;20038;-73
2022/04/23 05:43:51;;;;;;;2.33;0.47;;;22.90;95.70;;;;;;5114460;27;20807;-73
2022/04/23 05:46:18;;;;;;;3.10;0.80;;;22.90;95.80;;;;;;5114118;27;20050;-73
2022/04/23 05:48:46;;;;;;;2.05;0.50;;;23.00;95.60;;;;;;5115154;28;20047;-73
2022/04/23 05:51:13;;;;;;;1.65;0.22;;;23.10;95.60;;;;;;5112237;27;20058;-74
2022/04/23 05:53:41;;;;;;;0.10;0.10;;;23.10;95.90;;;;;;5114238;28;20027;-76
2022/04/23 05:56:08;;;;;;;1.67;0.50;;;23.10;95.90;;;;;;5111174;27;20024;-73
2022/04/23 05:58:36;;;;;;;2.20;0.43;;;22.90;96.30;;;;;;5111942;28;20032;-73
2022/04/23 06:01:04;;;;;;;1.20;0.30;;;22.50;96.90;;;;;;5113979;27;20105;-74
2022/04/23 06:03:31;;;;;;;1.25;0.30;;;22.30;97.50;;;;;;5114655;27;20497;-74
2022/04/23 06:05:59;;;;;;;0.98;0.30;;;22.20;97.90;;;;;;5110628;28;20028;-74
2022/04/23 06:08:26;;;;;;;1.55;0.30;;;22.00;98.10;;;;;;5114819;28;20019;-74
2022/04/23 06:10:53;;;;;;;0.28;0.10;;;22.00;98.20;;;;;;5112363;28;20381;-74
2022/04/23 06:13:21;;;;;;;1.20;0.10;;;22.00;98.20;;;;;;5113529;28;20036;-73
2022/04/23 06:15:48;;;;;;;0.85;0.15;;;22.00;98.10;;;;;;5112022;28;20024;-74
2022/04/23 06:18:15;;;;;;;3.13;0.55;;;22.10;98.20;;;;;;5114324;28;20024;-73
2022/04/23 06:20:43;;;;;;;1.23;0.20;;;22.10;98.40;;;;;;5114545;28;20084;-74
2022/04/23 06:23:10;;;;;;;4.00;0.20;;;22.20;98.40;;;;;;5113305;27;20031;-74
2022/04/23 06:25:37;;;;;;;1.90;0.20;;;22.20;98.60;;;;;;5113501;28;20031;-72
2022/04/23 06:28:05;;;;;;;0.75;0.10;;;22.10;98.60;;;;;;5117264;27;20099;-74
2022/04/23 06:30:32;;;;;;;2.67;0.30;;;22.00;98.80;;;;;;5113479;28;20035;-73
2022/04/23 06:33:00;;;;;;;1.40;0.20;;;21.80;99.20;;;;;;5112597;28;20067;-74
2022/04/23 06:35:27;;;;;;;2.25;0.65;;;21.60;99.20;;;;;;5112397;28;20464;-73
2022/04/23 06:37:55;;;;;;;4.25;0.50;;;21.60;99.20;;;;;;5112528;28;20040;-74
2022/04/23 06:40:22;;;;;;;2.70;0.22;;;21.50;99.40;;;;;;5113965;28;20024;-73
2022/04/23 06:42:50;;;;;;;3.35;0.28;;;21.30;99.40;;;;;;5111792;28;20031;-74
2022/04/23 06:45:17;;;;;;;1.63;0.20;;;21.30;99.50;;;;;;5112651;27;20027;-74
2022/04/23 06:47:45;;;;;;;0.25;0.20;;;21.30;99.70;;;;;;5130973;27;20054;-74
2022/04/23 06:50:12;;;;;;;2.30;0.20;;;21.20;99.90;;;;;;5114259;27;20046;-74
2022/04/23 06:52:40;;;;;;;1.15;0.20;;;21.10;99.90;;;;;;5125088;27;20123;-72
2022/04/23 06:55:08;;;;;;;0.52;0.20;;;21.00;99.90;;;;;;5103409;28;20089;-73
2022/04/23 06:57:44;;;;;;;0.85;0.25;;;21.00;99.90;;;;;;5110768;27;20054;-71
2022/04/23 07:00:12;;;;;;;1.83;0.32;;;20.80;99.90;;;;;;5111543;28;20038;-71
2022/04/23 07:02:39;;;;;;;1.25;0.40;;;20.90;99.90;;;;;;5122839;27;20521;-71
2022/04/23 07:05:08;;;;;;;3.03;0.73;;;21.00;99.90;;;;;;5103685;28;20028;-72
2022/04/23 07:07:35;;;;;;;2.33;0.40;;;21.00;99.90;;;;;;5094764;27;20466;-71
2022/04/23 07:10:03;;;;;;;2.40;0.40;;;21.00;99.90;;;;;;5095491;28;20548;-71
2022/04/23 07:12:31;;;;;;;1.63;0.30;;;20.90;99.90;;;;;;5099582;27;20057;-73
2022/04/23 07:14:58;;;;;;;2.90;0.25;;;20.80;99.90;;;;;;5100763;27;20397;-73
2022/04/23 07:17:26;;;;;;;3.33;0.45;;;20.70;99.90;;;;;;5104147;28;20110;-73
2022/04/23 07:19:53;;;;;;;3.63;0.70;;;20.60;99.90;;;;;;5111831;28;20031;-72
2022/04/23 07:22:21;;;;;;;1.27;0.32;;;20.50;99.90;;;;;;5119771;27;20034;-73
2022/04/23 07:24:50;;;;;;;0.75;0.20;;;20.40;99.90;;;;;;5100162;28;20035;-73
2022/04/23 07:27:17;;;;;;;2.55;0.68;;;20.40;99.90;;;;;;5108233;28;20124;-73
2022/04/23 07:29:45;;;;;;;2.65;0.20;;;20.30;99.90;;;;;;5090004;28;20030;-73
2022/04/23 07:32:12;;;;;;;1.63;0.30;;;20.20;99.90;;;;;;5105250;27;20393;-72
2022/04/23 07:37:34;;;;;;;1.25;0.15;;;20.10;99.90;;;;;;5098259;28;20050;-73
2022/04/23 07:40:10;;;;;;;3.03;0.30;;;20.00;99.90;;;;;;5099910;28;20393;-73
2022/04/23 07:42:37;;;;;;;;;;;19.90;99.90;;;;;;5100911;27;20506;-73
2022/04/23 07:45:05;;;;;;;2.15;0.90;;;19.90;99.90;;;;;;5110576;28;19912;-73
2022/04/23 07:47:32;;;;;;;1.65;0.70;;;19.80;99.90;;;;;;5103826;28;20510;-73
2022/04/23 07:50:01;;;;;;;0.90;0.50;;;19.80;99.90;;;;;;5101775;28;20039;-73
2022/04/23 07:52:28;;;;;;;6.00;0.88;;;19.70;99.90;;;;;;5099480;27;20112;-73
2022/04/23 07:54:56;;;;;;;1.95;0.32;;;19.60;99.90;;;;;;5105934;28;20028;-72
2022/04/23 07:57:24;;;;;;;2.20;0.22;;;19.60;99.90;;;;;;5120908;27;20325;-73
2022/04/23 07:59:51;;;;;;;1.52;0.25;;;19.50;99.90;;;;;;5105062;27;20023;-73
2022/04/23 08:02:19;;;;;;;3.78;1.25;;;19.50;99.90;;;;;;5110834;27;20116;-72
2022/04/23 08:04:46;;;;;;;1.88;0.30;;;19.50;99.90;;;;;;5099850;28;20028;-73
2022/04/23 08:07:15;;;;;;;1.17;0.50;;;19.50;99.90;;;;;;5097329;27;20019;-72
2022/04/23 08:09:42;;;;;;;0.73;0.40;;;19.40;99.90;;;;;;5099094;27;20024;-72
2022/04/23 08:12:10;;;;;;;1.88;0.47;;;19.30;99.90;;;;;;5098502;27;20100;-73
2022/04/23 08:14:38;;;;;;;2.35;0.40;;;19.30;99.90;;;;;;5098788;27;20032;-73
2022/04/23 08:17:06;;;;;;;2.22;0.50;;;19.20;99.90;;;;;;5103767;28;20074;-72
2022/04/23 08:19:33;;;;;;;1.13;0.52;;;19.10;99.90;;;;;;5110789;28;20071;-73
2022/04/23 08:22:01;;;;;;;1.50;0.40;;;19.10;99.90;;;;;;5110921;28;20031;-73
2022/04/23 08:24:30;;;;;;;1.38;0.40;;;19.00;99.90;;;;;;5112873;28;20531;-73
2022/04/23 08:26:58;;;;;;;2.90;0.70;;;19.00;99.90;;;;;;5101773;28;20028;-73
2022/04/23 08:32:10;;;;;;;1.50;0.75;;;18.90;99.90;;;;;;5099105;27;20084;-72
2022/04/23 08:34:37;;;;;;;3.83;2.03;;;18.80;99.90;;;;;;5102653;27;20382;-72
2022/04/23 08:37:05;;;;;;;3.60;1.63;;;18.80;99.90;;;;;;5113469;27;20085;-73
2022/04/23 08:39:32;;;;;;;6.72;2.10;;;18.70;99.90;;;;;;5098016;28;20358;-72
2022/04/23 08:42:02;;;;;;;3.28;1.90;;;18.60;99.90;;;;;;5099784;27;20019;-72
2022/04/23 08:44:29;;;;;;;5.70;2.33;;;18.60;99.90;;;;;;5098618;28;20032;-73
2022/04/23 08:46:57;;;;;;;4.32;1.83;;;18.50;99.90;;;;;;5100828;28;20128;-72
2022/04/23 08:49:38;;;;;;;5.75;2.42;;;18.50;99.90;;;;;;5110281;28;20047;-72
2022/04/23 08:52:24;;;;;;;6.18;2.28;;;18.60;99.90;;;;;;5107410;28;20508;-73
2022/04/23 08:54:54;;;;;;;6.22;2.38;;;18.60;99.90;;;;;;5079491;28;20131;-72
2022/04/23 08:57:21;;;;;;;8.95;3.97;;;18.60;99.90;;;;;;5117480;27;20062;-72
2022/04/23 08:59:51;;;;;;;7.40;3.38;;;18.60;99.90;;;;;;5110997;27;20803;-72
2022/04/23 09:02:18;;;;;;;5.75;1.98;;;18.70;99.90;;;;;;5097126;28;20023;-71
2022/04/23 09:04:46;;;;;;;6.05;1.67;;;18.70;99.90;;;;;;5099157;27;20031;-73
2022/04/23 09:07:25;;;;;;;4.90;1.40;;;18.60;99.90;;;;;;5098286;27;20031;-73
2022/04/23 09:09:54;;;;;;;2.72;0.68;;;18.60;99.90;;;;;;5099676;28;20015;-72
2022/04/23 09:12:26;;;;;;;1.45;0.75;;;18.60;99.90;;;;;;5096624;28;20039;-73
2022/04/23 09:15:04;;;;;;;1.85;0.52;;;18.50;99.90;;;;;;5108886;28;20031;-71
2022/04/23 09:25:54;;;;;;;4.03;1.17;;;18.20;99.90;;;;;;5114035;28;20303;-73
2022/04/23 09:28:30;;;;;;;3.40;0.73;;;18.20;99.90;;;;;;5118936;27;20030;-71
2022/04/23 09:30:59;;;;;;;0.90;0.50;;;18.10;99.90;;;;;;5068530;28;20111;-73
2022/04/23 09:33:49;;;;;;;2.33;0.47;;;18.00;99.90;;;;;;5126178;27;20048;-73
2022/04/23 09:36:16;;;;;;;2.53;0.55;;;18.00;99.90;;;;;;5108372;27;20099;-72
2022/04/23 09:38:44;;;;;;;3.33;0.30;;;18.00;99.90;;;;;;5105408;28;20037;-72
2022/04/23 09:41:18;;;;;;;1.73;0.60;;;18.00;99.90;;;;;;5107665;28;20385;-72
2022/04/23 09:43:48;;;;;;;3.45;0.50;;;17.90;99.90;;;;;;5105077;28;20509;-73
2022/04/23 09:46:16;;;;;;;2.20;0.52;;;17.80;99.90;;;;;;5091143;28;20028;-72
2022/04/23 09:48:44;;;;;;;0.95;0.50;;;17.80;99.90;;;;;;5110524;28;20052;-72
2022/04/23 09:51:24;;;;;;;1.85;0.40;;;17.70;99.90;;;;;;5109677;28;20024;-72
2022/04/23 09:53:55;;;;;;;1.55;0.47;;;17.70;99.90;;;;;;5107145;28;20740;-73
2022/04/23 09:56:25;;;;;;;3.28;0.52;;;17.60;99.90;;;;;;5109237;28;20015;-71
2022/04/23 09:58:55;;;;;;;0.55;0.28;;;17.50;99.90;;;;;;5110784;28;20026;-72
2022/04/23 10:01:24;;;;;;;3.08;0.50;;;17.50;99.90;;;;;;5108800;28;20055;-72
2022/04/23 10:03:54;;;;;;;3.40;0.82;;;17.40;99.90;;;;;;5108523;28;20042;-72
2022/04/23 10:06:23;;;;;;;1.45;0.50;;;17.40;99.90;;;;;;5109739;28;20023;-72
2022/04/23 10:08:59;;;;;;;1.27;0.68;;;17.40;99.90;;;;;;5098125;28;20042;-72
2022/04/23 10:11:27;;;;;;;2.17;0.65;;;17.30;99.90;;;;;;5107048;28;20096;-72
2022/04/23 10:14:04;;;;;;;0.80;0.50;;;17.30;99.90;;;;;;5117806;28;20363;-72
2022/04/23 10:16:32;;;;;;;1.42;0.77;;;17.20;99.90;;;;;;5091185;28;20019;-72
2022/04/23 10:19:01;;;;;;;2.75;0.70;;;17.20;99.90;;;;;;5093771;28;20099;-73
2022/04/23 10:21:31;;;;;;;1.52;0.80;;;17.20;99.90;;;;;;5101236;28;20389;-73
2022/04/23 10:24:05;;;;;;;2.40;0.80;;;17.10;99.90;;;;;;5128199;28;20023;-72
2022/04/23 10:26:49;;;;;;;1.77;0.65;;;17.00;99.90;;;;;;5112630;28;20500;-71
2022/04/23 10:29:21;;;;;;;4.40;0.80;;;17.00;99.90;;;;;;5112103;28;20027;-72
2022/04/23 10:32:09;;;;;;;3.10;0.60;;;17.00;99.90;;;;;;5109873;27;20440;-72
2022/04/23 10:34:38;;;;;;;2.38;0.50;;;16.90;99.90;;;;;;5113390;28;20393;-72
2022/04/23 10:37:29;;;;;;;1.25;0.70;;;16.90;99.90;;;;;;5110078;27;20508;-72
2022/04/23 10:39:57;;;;;;;1.23;0.43;;;16.80;99.90;;;;;;5103911;27;20016;-72
2022/04/23 10:42:26;;;;;;;2.75;0.90;;;16.80;99.90;;;;;;5098842;28;20035;-74
2022/04/23 10:44:57;;;;;;;3.15;0.77;;;16.80;99.90;;;;;;5101242;28;20027;-72
2022/04/23 10:47:34;;;;;;;2.63;1.25;;;16.70;99.90;;;;;;5099298;28;20177;-73
2022/04/23 10:50:23;;;;;;;1.83;0.98;;;16.70;99.90;;;;;;5102201;27;20036;-72
2022/04/23 10:52:54;;;;;;;3.20;0.82;;;16.70;99.90;;;;;;5099496;28;20035;-71
2022/04/23 10:55:21;;;;;;;2.22;0.80;;;16.70;99.90;;;;;;5114074;28;20024;-72
2022/04/23 10:57:53;;;;;;;3.88;1.10;;;16.70;99.90;;;;;;5127758;27;20435;-71
2022/04/23 11:00:23;;;;;;;2.33;0.90;;;16.70;99.90;;;;;;5131825;27;20034;-72
2022/04/23 11:02:57;;;;;;;2.35;0.80;;;16.80;99.90;;;;;;5108854;27;20023;-72
2022/04/23 11:14:26;;;;;;;2.03;0.60;;;16.70;99.90;;;;;;5093437;28;20101;-72
2022/04/23 11:16:55;;;;;;;1.92;0.63;;;16.70;99.90;;;;;;5093944;28;20124;-72
2022/04/23 11:19:25;;;;;;;1.95;1.10;;;16.60;99.90;;;;;;5109929;27;20132;-72
2022/04/23 11:21:52;;;;;;;2.63;0.80;;;16.60;99.90;;;;;;5117402;27;20028;-72
2022/04/23 11:24:22;;;;;;;2.97;1.33;;;16.50;99.90;;;;;;5113144;28;20047;-72
2022/04/23 11:26:51;;;;;;;3.42;1.00;;;16.50;99.90;;;;;;5101338;28;21024;-72
2022/04/23 11:29:18;;;;;;;2.40;1.40;;;16.40;99.90;;;;;;5082308;28;20047;-72
2022/04/23 11:31:52;;;;;;;2.58;1.80;;;16.30;99.90;;;;;;5099614;28;20057;-72
2022/04/23 11:34:19;;;;;;;4.25;1.80;;;16.30;99.90;;;;;;5100487;28;20032;-74
2022/04/23 11:36:47;;;;;;;4.32;2.20;;;16.30;99.90;;;;;;5097481;27;20023;-72
2022/04/23 11:39:14;;;;;;;10.23;3.00;;;16.20;99.90;;;;;;5096494;28;20023;-72
2022/04/23 11:41:43;;;;;;;9.35;5.03;;;16.20;99.90;;;;;;5097422;28;20105;-72
2022/04/23 11:47:15;;;;;;;14.23;7.43;;;16.20;99.90;;;;;;5109873;27;20055;-72
2022/04/23 11:49:42;;;;;;;12.80;7.13;;;16.20;99.90;;;;;;5102087;28;20032;-73
2022/04/23 11:52:13;;;;;;;15.30;8.60;;;16.20;99.90;;;;;;5111207;27;20090;-72
2022/04/23 11:54:43;;;;;;;18.65;9.07;;;16.20;99.90;;;;;;5101278;28;20366;-73
2022/04/23 11:57:16;;;;;;;15.05;9.13;;;16.20;99.90;;;;;;5100519;27;20059;-73
2022/04/23 11:59:49;;;;;;;13.05;7.70;;;16.20;99.90;;;;;;5100919;28;20024;-72
2022/04/23 12:02:28;;;;;;;10.27;6.32;;;16.20;99.90;;;;;;5100134;27;20027;-72
2022/04/23 12:05:03;;;;;;;7.63;5.18;;;16.10;99.90;;;;;;5098852;28;20470;-73
2022/04/23 12:07:33;;;;;;;8.73;5.30;;;16.10;99.90;;;;;;5098596;28;20165;-73
2022/04/23 12:10:04;;;;;;;11.40;4.25;;;16.10;99.90;;;;;;5099848;28;20326;-72
2022/04/23 12:12:33;;;;;;;5.38;3.47;;;16.00;99.90;;;;;;5103541;27;20035;-73
2022/04/23 12:15:06;;;;;;;5.40;4.07;;;16.00;99.90;;;;;;5101660;28;20119;-73
2022/04/23 12:17:46;;;;;;;5.38;2.88;;;16.00;99.90;;;;;;5102227;27;20458;-73
2022/04/23 12:20:19;;;;;;;4.93;3.03;;;16.00;99.90;;;;;;5109400;28;20027;-72
2022/04/23 12:22:56;;;;;;;4.32;2.13;;;16.10;99.90;;;;;;5108641;28;20482;-73
2022/04/23 12:25:25;;;;;;;5.00;1.67;;;16.10;99.90;;;;;;5110573;28;20026;-73
2022/04/23 12:42:10;;;;;;;1.63;1.20;;;16.00;99.90;;;;;;5097561;27;20450;-72
2022/04/23 12:44:46;;;;;;;2.10;1.67;;;16.00;99.90;;;;;;5095633;27;20034;-71
2022/04/23 12:47:19;;;;;;;2.35;1.50;;;16.00;99.90;;;;;;5095227;28;20043;-72
2022/04/23 12:49:54;;;;;;;1.63;1.00;;;16.00;99.90;;;;;;5098607;27;20067;-73
2022/04/23 12:52:27;;;;;;;1.50;1.13;;;16.10;99.90;;;;;;5097967;27;20040;-72
2022/04/23 12:55:19;;;;;;;2.53;1.52;;;16.10;99.90;;;;;;5096410;28;20891;-72
2022/04/23 12:57:47;;;;;;;1.83;1.00;;;16.10;99.90;;;;;;5096920;27;20032;-73
2022/04/23 13:00:22;;;;;;;2.63;1.05;;;16.20;99.90;;;;;;5096730;27;20051;-72
2022/04/23 13:02:57;;;;;;;2.15;1.33;;;16.20;99.90;;;;;;5096976;28;20103;-73
2022/04/23 13:05:25;;;;;;;2.28;1.70;;;16.20;99.90;;;;;;5105985;28;20039;-71
2022/04/23 13:10:39;;;;;;;2.92;2.13;;;16.20;99.90;;;;;;5101040;28;20467;-71
2022/04/23 13:13:09;;;;;;;2.75;0.93;;;16.20;99.90;;;;;;5098163;28;21794;-72
2022/04/23 13:15:39;;;;;;;4.18;1.10;;;16.20;99.90;;;;;;5098848;28;20028;-72
2022/04/23 13:18:07;;;;;;;1.15;0.80;;;16.20;99.90;;;;;;5097875;28;20043;-72
2022/04/23 13:20:34;;;;;;;1.98;1.08;;;16.10;99.90;;;;;;5091473;28;20020;-71
2022/04/23 13:23:02;;;;;;;2.88;0.75;;;16.10;99.90;;;;;;5108355;28;20457;-71
2022/04/23 13:25:29;;;;;;;1.73;0.98;;;16.10;99.90;;;;;;5107067;27;20022;-72
2022/04/23 13:27:57;;;;;;;4.25;1.05;;;16.00;99.90;;;;;;5107355;28;21538;-70
2022/04/23 13:30:24;;;;;;;1.98;0.85;;;16.00;99.90;;;;;;5109180;28;20034;-72
2022/04/23 13:32:51;;;;;;;1.77;0.90;;;16.00;99.90;;;;;;5095620;28;20032;-72
2022/04/23 13:35:20;;;;;;;1.77;0.85;;;16.00;99.90;;;;;;5110954;27;20524;-72
2022/04/23 13:37:47;;;;;;;4.10;0.95;;;16.00;99.90;;;;;;5098059;28;20726;-72
2022/04/23 13:40:14;;;;;;;3.25;0.98;;;16.10;99.90;;;;;;5098359;28;20236;-72
2022/04/23 13:42:43;;;;;;;1.95;0.75;;;16.10;99.90;;;;;;5095334;28;20474;-73